»·PEaware :: N546MC KSNA-KCRQ

N546MC :: KSNA-KCRQ

FLIGHT INFORMATION

Flight Status: Arrived
Operator: Privately registered:
United States
More flights under this callsign
Pilot: Ben C. (11644)
Aircraft: CESSNA 172 SKYHAWK
(C172)
More flights by this aircraft type
Origin: KSNA John Wayne-Orange Co
United States
Destination: KCRQ McClellan-Palomar
United States
More flights between these airports :: More routes between these airports
Route: +V23 OCN
File this flight plan on PilotEdge
Remarks: TEC / A Equip
Altitude:
(Current/Filed)
5,000ft
Speed:
(Current/Filed)
120kts
Departed: 07-Oct-18 03:48 PM
Arrived: 07-Oct-18 04:25 PM
Distance/Time
Traveled:
44nm/0:36
Distance/Time
To Go:
Arrived

Flight Plot

Page will automatically refresh every two minutes.


Map Options




Map Legend


Flown Route
Filed Route
Departure Airport
Arrival Airport
Navaid (VOR, NDB)
Fix

Horizontal Profiles

Position Reports

Time Latitude Longitude Heading Altitude Ground
Speed
07-Oct-18 15:30 33.672338 -117.867065 214 59ft 0kts
07-Oct-18 15:31 33.672335 -117.867068 214 59ft 0kts
07-Oct-18 15:32 33.672330 -117.867072 214 59ft 0kts
07-Oct-18 15:33 33.672325 -117.867076 214 59ft 0kts
07-Oct-18 15:34 33.672323 -117.867077 214 59ft 0kts
07-Oct-18 15:35 33.672240 -117.867252 276 59ft 2kts
07-Oct-18 15:36 33.673492 -117.866869 24 59ft 0kts
07-Oct-18 15:37 33.677224 -117.865125 27 59ft 22kts
07-Oct-18 15:38 33.679976 -117.863637 284 59ft 0kts
07-Oct-18 15:39 33.679977 -117.863641 284 59ft 0kts
07-Oct-18 15:40 33.679978 -117.863647 284 59ft 0kts
07-Oct-18 15:41 33.679979 -117.863651 284 59ft 0kts
07-Oct-18 15:42 33.679979 -117.863653 284 59ft 0kts
07-Oct-18 15:43 33.679980 -117.863655 284 59ft 0kts
07-Oct-18 15:44 33.679981 -117.863659 284 59ft 0kts
07-Oct-18 15:45 33.679981 -117.863661 284 59ft 0kts
07-Oct-18 15:46 33.679982 -117.863664 284 59ft 0kts
07-Oct-18 15:47 33.679982 -117.863667 284 59ft 0kts
07-Oct-18 15:48 33.679983 -117.863670 284 59ft 0kts
07-Oct-18 15:49 33.679984 -117.863675 284 59ft 0kts
07-Oct-18 15:50 33.673295 -117.869037 212 364ft 66kts
07-Oct-18 15:51 33.654305 -117.875994 189 1365ft 77kts
07-Oct-18 15:52 33.633696 -117.879693 189 2437ft 75kts
07-Oct-18 15:53 33.615121 -117.870326 131 3439ft 94kts
07-Oct-18 15:54 33.600016 -117.846518 132 4776ft 92kts
07-Oct-18 15:55 33.578513 -117.821127 134 5013ft 123kts
07-Oct-18 15:56 33.553347 -117.791604 134 5044ft 130kts
07-Oct-18 15:57 33.529355 -117.758282 130 5028ft 132kts
07-Oct-18 15:58 33.504593 -117.725492 130 4929ft 133kts
07-Oct-18 15:59 33.481135 -117.692571 134 5029ft 126kts
07-Oct-18 16:00 33.455661 -117.662662 136 5031ft 125kts
07-Oct-18 16:01 33.429710 -117.632990 136 5017ft 125kts
07-Oct-18 16:02 33.405121 -117.605075 136 5012ft 128kts
07-Oct-18 16:03 33.379528 -117.575930 136 5035ft 124kts
07-Oct-18 16:04 33.354224 -117.547088 136 5024ft 124kts
07-Oct-18 16:05 33.330567 -117.519375 128 5023ft 116kts
07-Oct-18 16:06 33.306579 -117.493903 136 5026ft 114kts
07-Oct-18 16:07 33.287457 -117.471849 135 5024ft 114kts
07-Oct-18 16:08 33.264336 -117.445018 131 5019ft 116kts
07-Oct-18 16:09 33.250256 -117.401910 108 5020ft 124kts
07-Oct-18 16:10 33.240784 -117.370804 108 5021ft 116kts
07-Oct-18 16:11 33.229479 -117.334915 95 4845ft 115kts
07-Oct-18 16:12 33.224107 -117.293995 97 4520ft 125kts
07-Oct-18 16:13 33.219175 -117.257468 96 4506ft 102kts
07-Oct-18 16:14 33.214340 -117.221745 97 4521ft 115kts
07-Oct-18 16:15 33.209182 -117.183657 96 4511ft 116kts
07-Oct-18 16:16 33.204158 -117.146529 96 4509ft 111kts
07-Oct-18 16:17 33.200069 -117.110611 86 4509ft 108kts
07-Oct-18 16:18 33.194557 -117.075825 116 4413ft 107kts
07-Oct-18 16:19 33.171518 -117.070717 201 3547ft 100kts
07-Oct-18 16:20 33.158215 -117.092525 263 3360ft 91kts
07-Oct-18 16:21 33.155097 -117.123320 261 2938ft 99kts
07-Oct-18 16:22 33.148825 -117.151246 264 2464ft 82kts
07-Oct-18 16:23 33.146074 -117.178228 259 2023ft 85kts
07-Oct-18 16:24 33.140504 -117.205857 260 1618ft 85kts
07-Oct-18 16:25 33.136030 -117.233023 259 1044ft 81kts
07-Oct-18 16:26 33.131594 -117.259785 258 612ft 82kts
07-Oct-18 16:27 33.128552 -117.278200 258 334ft 19kts
07-Oct-18 16:28 33.127114 -117.280901 202 334ft 10kts
07-Oct-18 16:29 33.124507 -117.280050 119 334ft 13kts

Navigation Log

Ident Type
1. KSNA Airport
2. OCN Navaid
3. KCRQ Airport